createdAt,value
2018-02-22T00:02:19.586Z,-0.60
2018-02-22T00:04:47.074Z,-0.60
2018-02-22T00:07:14.863Z,-0.60
2018-02-22T00:09:42.356Z,-0.70
2018-02-22T00:12:09.832Z,-0.70
2018-02-22T00:14:37.310Z,-0.70
2018-02-22T00:17:04.790Z,-0.70
2018-02-22T00:19:32.283Z,-0.70
2018-02-22T00:21:59.764Z,-0.70
2018-02-22T00:24:27.256Z,-0.70
2018-02-22T00:26:55.515Z,-0.70
2018-02-22T00:29:22.995Z,-0.70
2018-02-22T00:31:50.483Z,-0.80
2018-02-22T00:34:18.758Z,-0.80
2018-02-22T00:36:46.265Z,-0.80
2018-02-22T00:39:13.955Z,-0.80
2018-02-22T00:41:42.207Z,-0.80
2018-02-22T00:44:09.682Z,-0.90
2018-02-22T00:46:37.939Z,-0.80
2018-02-22T00:49:05.423Z,-0.90
2018-02-22T00:51:33.681Z,-0.80
2018-02-22T00:54:01.943Z,-0.90
2018-02-22T00:56:29.453Z,-0.90
2018-02-22T00:58:56.943Z,-0.90
2018-02-22T01:01:24.534Z,-0.90
2018-02-22T01:03:52.802Z,-1.00
2018-02-22T01:06:20.296Z,-1.00
2018-02-22T01:08:47.808Z,-1.00
2018-02-22T01:11:15.285Z,-1.00
2018-02-22T01:13:43.550Z,-1.00
2018-02-22T01:16:11.812Z,-1.00
2018-02-22T01:18:39.295Z,-1.00
2018-02-22T01:21:07.534Z,-1.00
2018-02-22T01:23:35.039Z,-1.00
2018-02-22T01:26:03.506Z,-1.00
2018-02-22T01:28:31.764Z,-1.00
2018-02-22T01:30:59.249Z,-1.00
2018-02-22T01:33:26.707Z,-1.00
2018-02-22T01:35:54.206Z,-1.10
2018-02-22T01:38:21.689Z,-1.00
2018-02-22T01:40:49.946Z,-1.00
2018-02-22T01:43:17.422Z,-1.10
2018-02-22T01:45:45.695Z,-1.00
2018-02-22T01:48:13.165Z,-1.10
2018-02-22T01:50:41.406Z,-1.10
2018-02-22T01:53:08.907Z,-1.10
2018-02-22T01:55:36.412Z,-1.10
2018-02-22T01:58:03.883Z,-1.10
2018-02-22T02:00:31.382Z,-1.10
2018-02-22T02:02:58.862Z,-1.10
2018-02-22T02:05:26.365Z,-1.10
2018-02-22T02:07:54.642Z,-1.10
2018-02-22T02:10:22.906Z,-1.20
2018-02-22T02:12:50.408Z,-1.20
2018-02-22T02:15:17.899Z,-1.20
2018-02-22T02:17:45.402Z,-1.20
2018-02-22T02:20:12.885Z,-1.20
2018-02-22T02:22:40.362Z,-1.20
2018-02-22T02:25:07.855Z,-1.20
2018-02-22T02:27:35.343Z,-1.20
2018-02-22T02:30:02.826Z,-1.30
2018-02-22T02:32:30.335Z,-1.30
2018-02-22T02:34:57.839Z,-1.30
2018-02-22T02:37:25.304Z,-1.30
2018-02-22T02:39:52.790Z,-1.30
2018-02-22T02:42:20.272Z,-1.30
2018-02-22T02:44:47.752Z,-1.30
2018-02-22T02:47:15.241Z,-1.30
2018-02-22T02:49:43.516Z,-1.30
2018-02-22T02:52:10.996Z,-1.30
2018-02-22T02:54:39.253Z,-1.30
2018-02-22T02:57:06.751Z,-1.30
2018-02-22T02:59:34.246Z,-1.30
2018-02-22T03:02:01.823Z,-1.30
2018-02-22T03:04:29.607Z,-1.30
2018-02-22T03:06:57.875Z,-1.30
2018-02-22T03:09:26.129Z,-1.30
2018-02-22T03:11:53.615Z,-1.30
2018-02-22T03:14:21.869Z,-1.30
2018-02-22T03:16:49.336Z,-1.30
2018-02-22T03:19:17.590Z,-1.30
2018-02-22T03:21:46.601Z,-1.30
2018-02-22T03:24:14.845Z,-1.30
2018-02-22T03:26:42.343Z,-1.30
2018-02-22T03:29:10.603Z,-1.30
2018-02-22T03:31:38.859Z,-1.30
2018-02-22T03:34:06.340Z,-1.30
2018-02-22T03:36:34.603Z,-1.30
2018-02-22T03:39:02.073Z,-1.30
2018-02-22T03:41:30.325Z,-1.30
2018-02-22T03:43:57.807Z,-1.30
2018-02-22T03:46:26.050Z,-1.30
2018-02-22T03:48:53.547Z,-1.30
2018-02-22T03:51:21.029Z,-1.30
2018-02-22T03:53:48.512Z,-1.30
2018-02-22T03:56:16.024Z,-1.30
2018-02-22T03:58:43.757Z,-1.30
2018-02-22T04:01:11.250Z,-1.30
2018-02-22T04:03:38.743Z,-1.30
2018-02-22T04:06:06.225Z,-1.30
2018-02-22T04:08:34.483Z,-1.40
2018-02-22T04:11:01.969Z,-1.40
2018-02-22T04:13:30.215Z,-1.40
2018-02-22T04:15:57.739Z,-1.40
2018-02-22T04:18:25.243Z,-1.40
2018-02-22T04:20:53.497Z,-1.40
2018-02-22T04:23:20.983Z,-1.40
2018-02-22T04:25:49.236Z,-1.40
2018-02-22T04:28:17.507Z,-1.40
2018-02-22T04:30:44.988Z,-1.40
2018-02-22T04:33:12.500Z,-1.40
2018-02-22T04:35:39.993Z,-1.50
2018-02-22T04:38:07.562Z,-1.50
2018-02-22T04:40:35.799Z,-1.50
2018-02-22T04:43:03.300Z,-1.50
2018-02-22T04:45:31.548Z,-1.50
2018-02-22T04:47:59.051Z,-1.50
2018-02-22T04:50:26.522Z,-1.50
2018-02-22T04:52:54.023Z,-1.50
2018-02-22T04:55:21.494Z,-1.50
2018-02-22T04:57:49.733Z,-1.40
2018-02-22T05:00:17.197Z,-1.50
2018-02-22T05:02:46.339Z,-1.40
2018-02-22T05:05:13.980Z,-1.40
2018-02-22T05:07:42.300Z,-1.40
2018-02-22T05:10:09.796Z,-1.40
2018-02-22T05:12:37.631Z,-1.40
2018-02-22T05:15:05.925Z,-1.40
2018-02-22T05:17:33.390Z,-1.40
2018-02-22T05:20:01.656Z,-1.30
2018-02-22T05:22:29.146Z,-1.40
2018-02-22T05:24:56.660Z,-1.30
2018-02-22T05:27:24.159Z,-1.30
2018-02-22T05:29:51.661Z,-1.30
2018-02-22T05:32:19.149Z,-1.20
2018-02-22T05:34:47.420Z,-1.20
2018-02-22T05:37:14.903Z,-1.20
2018-02-22T05:39:42.389Z,-1.20
2018-02-22T05:42:09.884Z,-1.10
2018-02-22T05:44:37.748Z,-1.10
2018-02-22T05:47:05.327Z,-1.10
2018-02-22T05:49:33.687Z,-1.10
2018-02-22T05:52:01.187Z,-1.10
2018-02-22T05:54:28.704Z,-1.20
2018-02-22T05:56:56.179Z,-1.20
2018-02-22T05:59:24.423Z,-1.30
2018-02-22T06:01:51.944Z,-1.30
2018-02-22T06:04:19.437Z,-1.30
2018-02-22T06:06:47.785Z,-1.30
2018-02-22T06:09:16.087Z,-1.30
2018-02-22T06:11:43.600Z,-1.30
2018-02-22T06:14:11.087Z,-1.20
2018-02-22T06:16:38.606Z,-1.20
2018-02-22T06:19:06.084Z,-1.20
2018-02-22T06:21:33.569Z,-1.10
2018-02-22T06:24:01.085Z,-1.10
2018-02-22T06:26:28.572Z,-1.10
2018-02-22T06:28:56.047Z,-1.10
2018-02-22T06:31:23.552Z,-1.10
2018-02-22T06:33:51.019Z,-1.10
2018-02-22T06:36:18.525Z,-1.20
2018-02-22T06:38:46.768Z,-1.20
2018-02-22T06:41:14.254Z,-1.20
2018-02-22T06:43:41.722Z,-1.20
2018-02-22T06:46:09.988Z,-1.30
2018-02-22T06:48:38.261Z,-1.40
2018-02-22T06:51:06.521Z,-1.30
2018-02-22T06:53:36.079Z,-1.30
2018-02-22T06:56:03.562Z,-1.30
2018-02-22T06:58:31.168Z,-1.20
2018-02-22T07:00:59.460Z,-0.90
2018-02-22T07:03:26.944Z,-0.90
2018-02-22T07:05:54.443Z,-0.80
2018-02-22T07:08:24.308Z,-0.70
2018-02-22T07:10:51.779Z,-0.70
2018-02-22T07:13:19.296Z,-0.60
2018-02-22T07:15:46.792Z,-0.40
2018-02-22T07:18:14.277Z,0.00
2018-02-22T07:20:41.744Z,0.30
2018-02-22T07:23:16.788Z,0.70
2018-02-22T07:25:37.453Z,0.70
2018-02-22T07:28:05.779Z,1.00
2018-02-22T07:30:34.023Z,1.10
2018-02-22T07:33:01.550Z,1.10
2018-02-22T07:35:29.026Z,1.30
2018-02-22T07:37:56.505Z,1.40
2018-02-22T07:40:23.975Z,1.50
2018-02-22T07:42:51.487Z,1.60
2018-02-22T07:45:18.993Z,1.50
2018-02-22T07:47:46.500Z,1.50
2018-02-22T07:50:14.005Z,1.60
2018-02-22T07:52:41.468Z,1.90
2018-02-22T07:55:08.954Z,2.30
2018-02-22T07:57:36.418Z,2.80
2018-02-22T08:00:03.956Z,3.20
2018-02-22T08:02:31.399Z,3.40
2018-02-22T08:04:58.886Z,3.60
2018-02-22T08:07:26.371Z,3.50
2018-02-22T08:09:54.631Z,3.70
2018-02-22T08:12:22.889Z,3.90
2018-02-22T08:14:50.384Z,3.90
2018-02-22T08:17:17.880Z,4.10
2018-02-22T08:19:46.502Z,4.40
2018-02-22T08:22:15.181Z,4.80
2018-02-22T08:24:42.657Z,4.70
2018-02-22T08:27:10.921Z,4.90
2018-02-22T08:29:38.644Z,4.80
2018-02-22T08:32:06.175Z,5.20
2018-02-22T08:34:33.658Z,5.10
2018-02-22T08:37:01.157Z,5.30
2018-02-22T08:39:29.094Z,5.40
2018-02-22T08:41:56.674Z,5.40
2018-02-22T08:44:24.912Z,5.80
2018-02-22T08:46:52.403Z,5.80
2018-02-22T08:49:20.657Z,6.30
2018-02-22T08:51:48.153Z,6.20
2018-02-22T08:54:15.646Z,6.30
2018-02-22T08:56:43.128Z,6.40
2018-02-22T08:59:10.602Z,6.80
2018-02-22T09:01:38.869Z,7.80
2018-02-22T09:04:06.344Z,7.70
2018-02-22T09:06:34.615Z,8.30
2018-02-22T09:09:02.893Z,8.00
2018-02-22T09:11:31.179Z,8.10
2018-02-22T09:13:58.640Z,8.00
2018-02-22T09:16:26.120Z,7.60
2018-02-22T09:18:53.599Z,7.40
2018-02-22T09:21:21.104Z,7.20
2018-02-22T09:23:48.588Z,6.90
2018-02-22T09:26:16.081Z,6.30
2018-02-22T09:28:43.570Z,6.40
2018-02-22T09:31:11.073Z,6.30
2018-02-22T09:33:38.564Z,6.80
2018-02-22T09:36:06.808Z,7.10
2018-02-22T09:38:34.302Z,7.10
2018-02-22T09:41:02.562Z,7.70
2018-02-22T09:43:30.817Z,8.20
2018-02-22T09:45:58.318Z,8.10
2018-02-22T09:48:25.821Z,8.40
2018-02-22T09:50:53.303Z,8.90
2018-02-22T09:53:20.783Z,9.00
2018-02-22T09:55:49.100Z,9.80
2018-02-22T09:58:16.590Z,9.80
2018-02-22T10:00:44.162Z,10.40
2018-02-22T10:03:12.427Z,10.30
2018-02-22T10:05:40.688Z,9.90
2018-02-22T10:08:08.207Z,9.90
2018-02-22T10:10:35.676Z,9.70
2018-02-22T10:13:03.178Z,10.00
2018-02-22T10:15:31.565Z,11.30
2018-02-22T10:18:00.073Z,11.20
2018-02-22T10:20:27.570Z,11.20
2018-02-22T10:22:55.046Z,11.30
2018-02-22T10:25:23.463Z,11.40
2018-02-22T10:27:51.100Z,11.40
2018-02-22T10:30:19.345Z,10.20
2018-02-22T10:32:46.849Z,10.20
2018-02-22T10:35:14.334Z,10.70
2018-02-22T10:37:41.842Z,11.00
2018-02-22T10:40:10.077Z,10.30
2018-02-22T10:42:37.571Z,10.30
2018-02-22T10:45:05.820Z,9.10
2018-02-22T10:47:33.311Z,9.10
2018-02-22T10:50:00.778Z,9.00
2018-02-22T10:52:28.662Z,8.80
2018-02-22T10:54:56.159Z,8.70
2018-02-22T10:57:23.610Z,8.70
2018-02-22T10:59:51.114Z,8.80
2018-02-22T11:02:24.209Z,8.90
2018-02-22T11:04:51.699Z,8.80
2018-02-22T11:07:19.272Z,8.10
2018-02-22T11:09:46.809Z,7.40
2018-02-22T11:12:14.304Z,7.00
2018-02-22T11:14:42.575Z,6.50
2018-02-22T11:17:10.827Z,6.20
2018-02-22T11:19:39.129Z,5.90
2018-02-22T11:22:07.428Z,5.50
2018-02-22T11:24:34.904Z,5.50
2018-02-22T11:27:02.400Z,5.30
2018-02-22T11:29:29.891Z,5.40
2018-02-22T11:31:57.440Z,5.40
2018-02-22T11:34:25.712Z,5.40
2018-02-22T11:36:53.960Z,5.40
2018-02-22T11:39:21.435Z,5.40
2018-02-22T11:41:48.934Z,5.20
2018-02-22T11:44:16.406Z,5.10
2018-02-22T11:46:43.887Z,5.10
2018-02-22T11:49:11.359Z,5.30
2018-02-22T11:51:39.617Z,5.10
2018-02-22T11:54:07.864Z,4.90
2018-02-22T11:56:35.356Z,4.90
2018-02-22T11:59:02.831Z,4.90
2018-02-22T12:01:30.318Z,5.00
2018-02-22T12:03:57.816Z,5.20
2018-02-22T12:06:25.291Z,5.00
2018-02-22T12:08:53.535Z,5.10
2018-02-22T12:11:21.036Z,5.10
2018-02-22T12:13:50.074Z,5.00
2018-02-22T12:16:17.558Z,4.90
2018-02-22T12:18:45.817Z,5.10
2018-02-22T12:21:13.332Z,5.10
2018-02-22T12:23:40.874Z,5.00
2018-02-22T12:26:08.356Z,4.70
2018-02-22T12:28:35.862Z,4.80
2018-02-22T12:31:04.110Z,5.00
2018-02-22T12:33:31.621Z,4.90
2018-02-22T12:35:59.106Z,5.10
2018-02-22T12:38:26.605Z,4.90
2018-02-22T12:40:54.852Z,4.70
2018-02-22T12:43:22.347Z,4.70
2018-02-22T12:45:50.579Z,4.80
2018-02-22T12:48:18.075Z,4.80
2018-02-22T12:50:49.123Z,4.90
2018-02-22T12:53:16.709Z,4.90
2018-02-22T12:55:44.287Z,4.70
2018-02-22T12:58:11.893Z,4.50
2018-02-22T13:00:39.401Z,4.60
2018-02-22T13:03:06.899Z,4.70
2018-02-22T13:05:35.159Z,4.80
2018-02-22T13:08:02.704Z,4.80
2018-02-22T13:10:30.238Z,4.70
2018-02-22T13:12:57.711Z,4.70
2018-02-22T13:15:25.272Z,4.80
2018-02-22T13:17:52.749Z,4.80
2018-02-22T13:20:20.276Z,4.80
2018-02-22T13:22:47.746Z,4.80
2018-02-22T13:25:15.233Z,4.80
2018-02-22T13:27:43.479Z,4.70
2018-02-22T13:30:10.967Z,4.70
2018-02-22T13:32:50.345Z,4.70
2018-02-22T13:35:19.188Z,4.80
2018-02-22T13:40:47.234Z,4.90
2018-02-22T13:43:15.509Z,5.00
2018-02-22T13:45:42.986Z,4.90
2018-02-22T13:48:10.459Z,4.80
2018-02-22T13:50:50.759Z,4.70
2018-02-22T13:53:18.266Z,4.70
2018-02-22T13:55:46.519Z,4.60
2018-02-22T13:58:14.000Z,4.60
2018-02-22T14:00:54.105Z,4.80
2018-02-22T14:03:21.583Z,4.80
2018-02-22T14:05:49.059Z,4.70
2018-02-22T14:08:29.129Z,4.60
2018-02-22T14:10:57.444Z,4.60
2018-02-22T14:13:24.953Z,4.70
2018-02-22T14:15:54.994Z,4.70
2018-02-22T14:18:22.642Z,4.70
2018-02-22T14:20:50.141Z,4.70
2018-02-22T14:23:17.840Z,4.70
2018-02-22T14:25:46.089Z,4.80
2018-02-22T14:28:13.571Z,4.70
2018-02-22T14:30:41.829Z,4.90
2018-02-22T14:33:10.134Z,5.00
2018-02-22T14:35:37.743Z,4.90
2018-02-22T14:38:05.223Z,5.00
2018-02-22T14:40:32.684Z,5.00
2018-02-22T14:43:00.178Z,4.80
2018-02-22T14:45:27.669Z,4.70
2018-02-22T14:47:55.209Z,4.70
2018-02-22T14:50:22.700Z,4.80
2018-02-22T14:52:50.202Z,4.80
2018-02-22T14:55:17.722Z,4.80
2018-02-22T14:57:45.960Z,4.70
2018-02-22T15:00:13.446Z,4.70
2018-02-22T15:02:41.045Z,4.60
2018-02-22T15:05:09.071Z,4.60
2018-02-22T15:07:38.044Z,4.60
2018-02-22T15:10:05.522Z,4.60
2018-02-22T15:12:33.159Z,4.70
2018-02-22T15:15:00.676Z,4.70
2018-02-22T15:17:28.193Z,4.70
2018-02-22T15:19:56.541Z,4.70
2018-02-22T15:22:24.032Z,4.70
2018-02-22T15:24:51.568Z,4.60
2018-02-22T15:27:19.078Z,4.60
2018-02-22T15:29:46.583Z,4.60
2018-02-22T15:32:14.112Z,4.50
2018-02-22T15:34:41.607Z,4.40
2018-02-22T15:37:09.085Z,4.30
2018-02-22T15:39:37.333Z,4.20
2018-02-22T15:42:04.806Z,4.20
2018-02-22T15:44:33.060Z,4.10
2018-02-22T15:47:00.557Z,4.10
2018-02-22T15:49:28.064Z,4.00
2018-02-22T15:51:55.534Z,4.00
2018-02-22T15:54:23.016Z,4.00
2018-02-22T15:56:51.266Z,3.90
2018-02-22T15:59:18.748Z,3.80
2018-02-22T16:01:46.982Z,3.80
2018-02-22T16:04:14.456Z,3.80
2018-02-22T16:06:41.939Z,3.90
2018-02-22T16:09:09.471Z,3.90
2018-02-22T16:11:36.960Z,3.80
2018-02-22T16:14:04.455Z,3.80
2018-02-22T16:16:31.940Z,3.70
2018-02-22T16:19:00.262Z,3.70
2018-02-22T16:21:27.746Z,3.70
2018-02-22T16:23:55.220Z,3.60
2018-02-22T16:26:22.714Z,3.60
2018-02-22T16:28:50.212Z,3.50
2018-02-22T16:31:17.732Z,3.50
2018-02-22T16:33:45.354Z,3.40
2018-02-22T16:36:12.842Z,3.30
2018-02-22T16:38:40.351Z,3.30
2018-02-22T16:41:07.817Z,3.20
2018-02-22T16:43:35.418Z,3.10
2018-02-22T16:46:02.947Z,3.10
2018-02-22T16:48:31.209Z,2.90
2018-02-22T16:50:58.830Z,2.90
2018-02-22T16:53:26.344Z,2.90
2018-02-22T16:55:54.603Z,2.80
2018-02-22T16:58:22.145Z,2.70
2018-02-22T17:00:49.656Z,2.70
2018-02-22T17:03:17.175Z,2.70
2018-02-22T17:05:44.723Z,2.70
2018-02-22T17:08:12.215Z,2.60
2018-02-22T17:10:40.475Z,2.50
2018-02-22T17:13:08.860Z,2.40
2018-02-22T17:15:36.363Z,2.40
2018-02-22T17:18:03.849Z,2.40
2018-02-22T17:20:31.386Z,2.30
2018-02-22T17:22:58.859Z,2.30
2018-02-22T17:25:25.933Z,2.20
2018-02-22T17:27:59.795Z,2.10
2018-02-22T17:30:33.029Z,2.10
2018-02-22T17:33:00.509Z,2.10
2018-02-22T17:35:32.653Z,2.00
2018-02-22T17:38:05.563Z,2.00
2018-02-22T17:40:35.600Z,1.90
2018-02-22T17:43:03.148Z,1.90
2018-02-22T17:45:30.693Z,1.90
2018-02-22T17:47:59.100Z,1.80
2018-02-22T17:50:26.589Z,1.80
2018-02-22T17:52:54.076Z,1.80
2018-02-22T17:55:21.868Z,1.80
2018-02-22T17:57:49.430Z,1.70
2018-02-22T18:00:16.923Z,1.70
2018-02-22T18:02:44.412Z,1.60
2018-02-22T18:05:11.917Z,1.60
2018-02-22T18:07:40.192Z,1.50
2018-02-22T18:10:07.717Z,1.50
2018-02-22T18:12:35.287Z,1.50
2018-02-22T18:15:02.839Z,1.50
2018-02-22T18:17:30.385Z,1.50
2018-02-22T18:19:57.900Z,1.50
2018-02-22T18:22:26.230Z,1.40
2018-02-22T18:24:53.756Z,1.40
2018-02-22T18:27:21.240Z,1.40
2018-02-22T18:29:48.773Z,1.40
2018-02-22T18:32:17.004Z,1.30
2018-02-22T18:34:44.543Z,1.30
2018-02-22T18:37:17.618Z,1.30
2018-02-22T18:39:45.126Z,1.30
2018-02-22T18:42:19.146Z,1.20
2018-02-22T18:44:53.459Z,1.20
2018-02-22T18:47:21.786Z,1.20
2018-02-22T18:49:49.282Z,1.20
2018-02-22T18:52:16.772Z,1.20
2018-02-22T18:54:44.313Z,1.10
2018-02-22T18:57:11.772Z,1.10
2018-02-22T18:59:39.542Z,1.10
2018-02-22T19:02:07.022Z,1.10
2018-02-22T19:04:34.578Z,1.10
2018-02-22T19:07:02.092Z,1.10
2018-02-22T19:09:30.360Z,1.00
2018-02-22T19:11:58.655Z,1.00
2018-02-22T19:14:26.160Z,1.00
2018-02-22T19:16:56.695Z,1.00
2018-02-22T19:19:24.181Z,0.90
2018-02-22T19:21:52.453Z,0.90
2018-02-22T19:24:20.709Z,0.90
2018-02-22T19:26:48.215Z,0.90
2018-02-22T19:29:15.699Z,0.90
2018-02-22T19:31:43.204Z,0.90
2018-02-22T19:34:10.726Z,0.80
2018-02-22T19:36:38.239Z,0.80
2018-02-22T19:39:05.802Z,0.80
2018-02-22T19:41:33.335Z,0.70
2018-02-22T19:44:01.028Z,0.70
2018-02-22T19:46:28.754Z,0.70
2018-02-22T19:48:57.002Z,0.70
2018-02-22T19:51:24.490Z,0.70
2018-02-22T19:53:52.928Z,0.60
2018-02-22T19:56:20.498Z,0.60
2018-02-22T19:58:48.990Z,0.50
2018-02-22T20:01:17.292Z,0.50
2018-02-22T20:03:44.840Z,0.50
2018-02-22T20:06:12.363Z,0.60
2018-02-22T20:08:39.924Z,0.60
2018-02-22T20:11:07.517Z,0.60
2018-02-22T20:13:35.043Z,0.50
2018-02-22T20:16:02.557Z,0.50
2018-02-22T20:18:30.056Z,0.50
2018-02-22T20:20:57.554Z,0.50
2018-02-22T20:23:25.079Z,0.50
2018-02-22T20:25:53.368Z,0.40
2018-02-22T20:28:21.676Z,0.40
2018-02-22T20:30:49.202Z,0.40
2018-02-22T20:33:17.224Z,0.40
2018-02-22T20:35:44.792Z,0.40
2018-02-22T20:38:12.345Z,0.40
2018-02-22T20:40:39.929Z,0.40
2018-02-22T20:43:07.491Z,0.40
2018-02-22T20:45:36.467Z,0.30
2018-02-22T20:48:04.111Z,0.30
2018-02-22T20:50:31.770Z,0.30
2018-02-22T20:52:59.349Z,0.30
2018-02-22T20:55:38.587Z,0.20
2018-02-22T20:58:06.992Z,0.10
2018-02-22T21:00:34.536Z,0.10
2018-02-22T21:03:02.794Z,0.10
2018-02-22T21:05:31.356Z,0.10
2018-02-22T21:08:02.007Z,0.10
2018-02-22T21:10:29.607Z,0.10
2018-02-22T21:12:57.160Z,0.10
2018-02-22T21:15:24.658Z,0.00
2018-02-22T21:17:52.203Z,0.00
2018-02-22T21:20:19.716Z,0.00
2018-02-22T21:22:47.993Z,0.00
2018-02-22T21:25:15.492Z,0.00
2018-02-22T21:27:42.995Z,0.00
2018-02-22T21:30:11.259Z,0.00
2018-02-22T21:32:39.539Z,0.00
2018-02-22T21:35:07.895Z,0.00
2018-02-22T21:37:35.394Z,0.00
2018-02-22T21:40:02.953Z,0.00
2018-02-22T21:42:30.440Z,0.00
2018-02-22T21:44:57.976Z,0.00
2018-02-22T21:47:25.469Z,0.00
2018-02-22T21:49:53.012Z,0.00
2018-02-22T21:52:20.509Z,0.00
2018-02-22T21:54:48.743Z,0.10
2018-02-22T21:57:16.235Z,0.00
2018-02-22T21:59:43.777Z,0.10
2018-02-22T22:02:11.251Z,0.10
2018-02-22T22:04:39.638Z,0.10
2018-02-22T22:07:07.053Z,0.10
2018-02-22T22:09:34.590Z,0.10
2018-02-22T22:12:02.089Z,0.10
2018-02-22T22:14:30.360Z,0.00
2018-02-22T22:16:57.848Z,0.00
2018-02-22T22:19:25.377Z,0.00
2018-02-22T22:21:52.883Z,0.00
2018-02-22T22:24:20.385Z,0.00
2018-02-22T22:26:47.875Z,-0.10
2018-02-22T22:29:15.397Z,-0.10
2018-02-22T22:31:42.939Z,-0.20
2018-02-22T22:34:10.420Z,-0.20
2018-02-22T22:36:38.725Z,-0.10
2018-02-22T22:39:06.205Z,-0.20
2018-02-22T22:41:33.715Z,-0.20
2018-02-22T22:44:02.039Z,-0.20
2018-02-22T22:46:30.305Z,-0.20
2018-02-22T22:48:57.793Z,-0.20
2018-02-22T22:51:25.360Z,-0.20
2018-02-22T22:53:52.887Z,-0.20
2018-02-22T22:56:20.419Z,-0.10
2018-02-22T22:58:47.932Z,-0.10
2018-02-22T23:01:15.492Z,-0.20
2018-02-22T23:03:43.084Z,-0.20
2018-02-22T23:06:10.788Z,-0.30
2018-02-22T23:08:38.328Z,-0.40
2018-02-22T23:11:05.916Z,-0.40
2018-02-22T23:13:33.630Z,-0.50
2018-02-22T23:16:01.154Z,-0.50
2018-02-22T23:18:29.180Z,-0.60
2018-02-22T23:20:56.674Z,-0.50
2018-02-22T23:23:24.225Z,-0.60
2018-02-22T23:25:51.810Z,-0.60
2018-02-22T23:28:19.984Z,-0.60
2018-02-22T23:30:48.252Z,-0.70
2018-02-22T23:33:16.630Z,-0.80
2018-02-22T23:35:44.117Z,-0.80
2018-02-22T23:38:11.615Z,-0.80
2018-02-22T23:40:51.871Z,-0.90
2018-02-22T23:43:19.351Z,-0.90
2018-02-22T23:45:47.578Z,-1.00
2018-02-22T23:48:15.128Z,-1.00
2018-02-22T23:50:42.640Z,-1.10
2018-02-22T23:53:10.112Z,-1.10
2018-02-22T23:55:38.383Z,-1.20
2018-02-22T23:58:06.641Z,-1.30
